Time;durP1;ratioP1;P1;durP2;ratioP2;P2;SDS_P1;SDS_P2;PMS_P1;PMS_P2;Temp;Humidity;BMP_temperature;BMP_pressure;BME280_temperature;BME280_humidity;BME280_pressure;Samples;Min_cycle;Max_cycle;Signal;HPM_P1;HPM_P2
2021/10/04 00:01:23;;;;;;;3.33;1.38;;;13.40;99.90;;;;;;5112506;28;20471;-74
2021/10/04 00:03:48;;;;;;;2.88;1.35;;;13.40;99.90;;;;;;5112673;28;20478;-73
2021/10/04 00:06:14;;;;;;;4.00;1.30;;;13.50;99.90;;;;;;5108570;28;20063;-73
2021/10/04 00:08:40;;;;;;;4.60;1.40;;;13.50;99.90;;;;;;5111178;28;20023;-73
2021/10/04 00:11:05;;;;;;;1.52;1.17;;;13.50;99.90;;;;;;5111251;28;20051;-74
2021/10/04 00:13:31;;;;;;;3.95;1.00;;;13.40;99.90;;;;;;5110397;28;20509;-74
2021/10/04 00:15:58;;;;;;;3.20;1.42;;;13.40;99.90;;;;;;5111575;28;20494;-74
2021/10/04 00:18:24;;;;;;;5.07;1.25;;;13.40;99.90;;;;;;5112950;28;20016;-74
2021/10/04 00:20:50;;;;;;;3.05;1.15;;;13.40;99.90;;;;;;5111335;28;20028;-74
2021/10/04 00:23:16;;;;;;;2.15;1.17;;;13.50;99.90;;;;;;5110392;28;20026;-74
2021/10/04 00:25:42;;;;;;;4.00;1.35;;;13.50;99.90;;;;;;5112073;28;20100;-75
2021/10/04 00:28:08;;;;;;;2.03;1.05;;;13.50;99.90;;;;;;5111950;28;20475;-75
2021/10/04 00:30:34;;;;;;;5.57;1.05;;;13.60;99.90;;;;;;5088956;28;20035;-74
2021/10/04 00:33:00;;;;;;;5.50;1.27;;;13.60;99.90;;;;;;5107522;27;20027;-74
2021/10/04 00:35:27;;;;;;;4.72;1.50;;;13.50;99.90;;;;;;5111377;28;20027;-74
2021/10/04 00:37:53;;;;;;;4.32;1.08;;;13.60;99.90;;;;;;5112332;28;20086;-74
2021/10/04 00:40:22;;;;;;;1.70;1.02;;;13.60;99.90;;;;;;5110420;28;20020;-74
2021/10/04 00:42:48;;;;;;;1.65;0.90;;;13.60;99.90;;;;;;5109170;28;20035;-74
2021/10/04 00:45:16;;;;;;;3.60;0.98;;;13.60;99.90;;;;;;5112871;28;20015;-74
2021/10/04 00:47:41;;;;;;;3.72;1.05;;;13.50;99.90;;;;;;5110546;28;20133;-74
2021/10/04 00:50:09;;;;;;;4.65;1.10;;;13.50;99.90;;;;;;5112367;28;20051;-74
2021/10/04 00:52:36;;;;;;;5.85;1.40;;;13.50;99.90;;;;;;5112232;28;20062;-74
2021/10/04 00:55:03;;;;;;;9.32;1.90;;;13.50;99.90;;;;;;5111065;28;20065;-75
2021/10/04 00:57:29;;;;;;;2.70;1.17;;;13.50;99.90;;;;;;5112909;28;20020;-74
2021/10/04 00:59:54;;;;;;;1.85;1.10;;;13.50;99.90;;;;;;5093180;28;20398;-74
2021/10/04 01:02:20;;;;;;;3.80;1.23;;;13.50;99.90;;;;;;5111652;28;20098;-74
2021/10/04 01:04:46;;;;;;;3.53;1.27;;;13.40;99.90;;;;;;5110807;28;20055;-74
2021/10/04 01:07:12;;;;;;;2.88;1.20;;;13.40;99.90;;;;;;5111906;28;20028;-74
2021/10/04 01:09:38;;;;;;;5.32;1.17;;;13.40;99.90;;;;;;5109536;28;20504;-74
2021/10/04 01:12:05;;;;;;;3.13;0.90;;;13.50;99.90;;;;;;5111855;28;20053;-74
2021/10/04 01:14:30;;;;;;;2.65;1.00;;;13.50;99.90;;;;;;5107891;28;20031;-74
2021/10/04 01:16:56;;;;;;;3.33;1.13;;;13.40;99.90;;;;;;5111750;28;20414;-75
2021/10/04 01:19:22;;;;;;;2.45;0.80;;;13.40;99.90;;;;;;5110756;28;20091;-74
2021/10/04 01:21:48;;;;;;;8.88;1.25;;;13.40;99.90;;;;;;5110343;28;20070;-74
2021/10/04 01:24:15;;;;;;;2.78;1.20;;;13.40;99.90;;;;;;5092634;28;20047;-75
2021/10/04 01:26:41;;;;;;;2.67;0.90;;;13.40;99.90;;;;;;5094669;28;20031;-74
2021/10/04 01:29:07;;;;;;;2.10;0.80;;;13.40;99.90;;;;;;5108032;28;20046;-74
2021/10/04 01:31:33;;;;;;;4.57;1.27;;;13.40;99.90;;;;;;5092506;28;20067;-74
2021/10/04 01:33:59;;;;;;;2.22;0.90;;;13.50;99.90;;;;;;5092149;28;20038;-74
2021/10/04 01:36:28;;;;;;;3.88;1.52;;;13.40;99.90;;;;;;5093752;28;20020;-75
2021/10/04 01:38:55;;;;;;;2.72;1.20;;;13.40;99.90;;;;;;5112211;28;20026;-75
2021/10/04 01:41:22;;;;;;;3.00;1.33;;;13.50;99.90;;;;;;5106920;28;20500;-74
2021/10/04 01:43:48;;;;;;;1.38;0.95;;;13.40;99.90;;;;;;5112072;28;20099;-74
2021/10/04 01:46:13;;;;;;;4.47;1.13;;;13.40;99.90;;;;;;5115806;28;20110;-74
2021/10/04 01:48:39;;;;;;;3.80;1.15;;;13.40;99.90;;;;;;5116870;28;20023;-74
2021/10/04 01:51:05;;;;;;;3.95;1.02;;;13.40;99.90;;;;;;5116489;28;20352;-75
2021/10/04 01:53:31;;;;;;;3.65;1.00;;;13.40;99.90;;;;;;5112952;28;20024;-75
2021/10/04 01:55:57;;;;;;;2.70;0.98;;;13.50;99.90;;;;;;5115874;28;20378;-74
2021/10/04 01:58:23;;;;;;;3.42;0.82;;;13.50;99.90;;;;;;5115590;28;20023;-75
2021/10/04 02:00:49;;;;;;;1.90;0.80;;;13.50;99.90;;;;;;5116363;28;20102;-74
2021/10/04 02:03:14;;;;;;;2.08;0.90;;;13.50;99.90;;;;;;5116044;28;20547;-75
2021/10/04 02:05:40;;;;;;;3.42;1.05;;;13.50;99.90;;;;;;5114212;28;20016;-74
2021/10/04 02:08:06;;;;;;;1.63;0.68;;;13.50;99.90;;;;;;5113820;28;20535;-75
2021/10/04 02:10:36;;;;;;;5.22;1.25;;;13.50;99.90;;;;;;5115799;28;20072;-75
2021/10/04 02:13:05;;;;;;;3.90;0.88;;;13.60;99.90;;;;;;5113270;28;20035;-74
2021/10/04 02:15:31;;;;;;;8.18;1.17;;;13.60;99.90;;;;;;5117585;27;20023;-75
2021/10/04 02:17:57;;;;;;;2.17;0.80;;;13.60;99.90;;;;;;5117484;27;20084;-75
2021/10/04 02:20:26;;;;;;;1.33;0.80;;;13.60;99.90;;;;;;5115665;27;20042;-74
2021/10/04 02:22:51;;;;;;;1.00;0.80;;;13.60;99.90;;;;;;5113826;27;20101;-74
2021/10/04 02:25:18;;;;;;;4.18;0.90;;;13.60;99.90;;;;;;5116613;27;20041;-74
2021/10/04 02:27:44;;;;;;;4.50;1.30;;;13.60;99.90;;;;;;5100093;27;20038;-75
2021/10/04 02:30:20;;;;;;;6.45;1.23;;;13.50;99.90;;;;;;5116810;27;20032;-75
2021/10/04 02:32:45;;;;;;;4.78;1.67;;;13.50;99.90;;;;;;5113889;27;20501;-75
2021/10/04 02:35:11;;;;;;;4.28;0.90;;;13.50;99.90;;;;;;5115280;28;20024;-75
2021/10/04 02:37:37;;;;;;;4.25;1.00;;;13.50;99.90;;;;;;5114944;28;20024;-74
2021/10/04 02:40:06;;;;;;;5.75;1.08;;;13.40;99.90;;;;;;5111855;28;20027;-75
2021/10/04 02:42:32;;;;;;;2.47;0.80;;;13.50;99.90;;;;;;5115138;28;20023;-74
2021/10/04 02:44:58;;;;;;;3.05;1.13;;;13.50;99.90;;;;;;5114712;28;20028;-74
2021/10/04 02:47:24;;;;;;;2.88;1.15;;;13.40;99.90;;;;;;5115427;28;20026;-74
2021/10/04 02:49:50;;;;;;;5.20;1.17;;;13.50;99.90;;;;;;5115250;28;20441;-75
2021/10/04 02:52:17;;;;;;;5.18;1.20;;;13.50;99.90;;;;;;5115165;28;20030;-74
2021/10/04 02:54:44;;;;;;;3.85;1.00;;;13.50;99.90;;;;;;5099921;28;20115;-75
2021/10/04 02:57:09;;;;;;;2.10;0.90;;;13.50;99.90;;;;;;5113962;28;20027;-74
2021/10/04 02:59:35;;;;;;;3.92;1.05;;;13.40;99.90;;;;;;5114634;28;20035;-74
2021/10/04 03:02:01;;;;;;;6.40;1.13;;;13.40;99.90;;;;;;5096927;28;20030;-74
2021/10/04 03:04:26;;;;;;;3.55;1.10;;;13.50;99.90;;;;;;5115220;28;20031;-74
2021/10/04 03:06:52;;;;;;;3.25;1.10;;;13.50;99.90;;;;;;5111388;28;20055;-74
2021/10/04 03:09:18;;;;;;;4.03;1.30;;;13.50;99.90;;;;;;5114831;28;20034;-74
2021/10/04 03:11:43;;;;;;;3.60;0.88;;;13.40;99.90;;;;;;5114937;28;20032;-75
2021/10/04 03:14:09;;;;;;;2.35;0.90;;;13.40;99.90;;;;;;5114425;28;20031;-76
2021/10/04 03:16:35;;;;;;;3.00;0.90;;;13.40;99.90;;;;;;5112377;28;20016;-75
2021/10/04 03:19:01;;;;;;;3.33;1.10;;;13.50;99.90;;;;;;5114030;28;20024;-75
2021/10/04 03:21:26;;;;;;;1.38;1.00;;;13.50;99.90;;;;;;5115000;28;20467;-74
2021/10/04 03:23:52;;;;;;;9.00;1.38;;;13.50;99.90;;;;;;5114875;28;20022;-74
2021/10/04 03:26:18;;;;;;;3.42;1.00;;;13.40;99.90;;;;;;5094287;28;20493;-74
2021/10/04 03:28:43;;;;;;;2.45;0.82;;;13.40;99.90;;;;;;5114466;28;20043;-75
2021/10/04 03:31:09;;;;;;;1.60;1.10;;;13.40;99.90;;;;;;5102517;28;20036;-74
2021/10/04 03:33:35;;;;;;;2.78;0.93;;;13.40;99.90;;;;;;5114541;28;20140;-74
2021/10/04 03:36:01;;;;;;;2.47;0.93;;;13.40;99.90;;;;;;5114341;28;20471;-75
2021/10/04 03:38:27;;;;;;;1.85;1.00;;;13.30;99.90;;;;;;5114473;28;20416;-75
2021/10/04 03:40:52;;;;;;;3.50;1.23;;;13.40;99.90;;;;;;5114214;28;20047;-75
2021/10/04 03:43:18;;;;;;;2.67;1.00;;;13.40;99.90;;;;;;5114133;28;20053;-74
2021/10/04 03:45:44;;;;;;;2.95;0.90;;;13.50;99.90;;;;;;5114451;28;20490;-76
2021/10/04 03:48:10;;;;;;;1.35;0.85;;;13.40;99.90;;;;;;5113698;28;20551;-75
2021/10/04 03:50:36;;;;;;;4.25;1.10;;;13.30;99.90;;;;;;5110054;27;20035;-75
2021/10/04 03:53:01;;;;;;;5.95;1.13;;;13.40;99.90;;;;;;5113866;28;20379;-74
2021/10/04 03:55:27;;;;;;;2.67;0.82;;;13.30;99.90;;;;;;5114693;28;20008;-74
2021/10/04 03:57:53;;;;;;;2.05;0.93;;;13.30;99.90;;;;;;5113654;28;20382;-74
2021/10/04 04:00:20;;;;;;;5.78;1.00;;;13.40;99.90;;;;;;5112987;28;20035;-75
2021/10/04 04:02:46;;;;;;;3.15;1.13;;;13.40;99.90;;;;;;5112808;28;20499;-74
2021/10/04 04:05:12;;;;;;;10.18;4.30;;;13.50;99.90;;;;;;5093385;28;20028;-74
2021/10/04 04:07:38;;;;;;;6.68;3.25;;;13.40;99.90;;;;;;5111897;28;20095;-75
2021/10/04 04:10:06;;;;;;;7.28;5.10;;;13.40;99.90;;;;;;5090209;28;20019;-74
2021/10/04 04:12:34;;;;;;;10.35;5.50;;;13.40;99.90;;;;;;5114255;27;20020;-74
2021/10/04 04:15:00;;;;;;;7.78;4.00;;;13.40;99.90;;;;;;5114160;27;20035;-74
2021/10/04 04:17:26;;;;;;;6.10;4.22;;;13.40;99.90;;;;;;5115989;27;20024;-74
2021/10/04 04:19:52;;;;;;;10.23;4.40;;;13.40;99.90;;;;;;5114534;27;20036;-74
2021/10/04 04:22:17;;;;;;;6.05;3.50;;;13.40;99.90;;;;;;5093011;28;20016;-74
2021/10/04 04:24:43;;;;;;;5.93;3.22;;;13.40;99.90;;;;;;5114111;27;20487;-74
2021/10/04 04:27:09;;;;;;;8.15;2.75;;;13.40;99.90;;;;;;5115730;27;20024;-74
2021/10/04 04:29:36;;;;;;;7.57;2.58;;;13.40;99.90;;;;;;5114614;27;20035;-74
2021/10/04 04:32:09;;;;;;;4.38;2.00;;;13.40;99.90;;;;;;5109200;27;20030;-74
2021/10/04 04:34:35;;;;;;;7.20;1.55;;;13.40;99.90;;;;;;5112808;27;20076;-74
2021/10/04 04:37:02;;;;;;;4.10;1.60;;;13.50;99.90;;;;;;5093427;27;20023;-75
2021/10/04 04:39:28;;;;;;;2.72;1.42;;;13.50;99.90;;;;;;5115305;27;20026;-75
2021/10/04 04:41:54;;;;;;;4.53;1.50;;;13.40;99.90;;;;;;5092986;27;20107;-74
2021/10/04 04:44:21;;;;;;;3.63;1.83;;;13.50;99.90;;;;;;5115391;27;20016;-74
2021/10/04 04:46:48;;;;;;;5.00;1.55;;;13.60;99.90;;;;;;5115409;27;20475;-74
2021/10/04 04:49:13;;;;;;;5.35;1.30;;;13.50;99.90;;;;;;5115032;27;20123;-75
2021/10/04 04:51:39;;;;;;;8.80;2.28;;;13.50;99.90;;;;;;5113688;27;20098;-74
2021/10/04 04:54:05;;;;;;;4.65;1.38;;;13.50;99.90;;;;;;5115809;27;20490;-74
2021/10/04 04:56:31;;;;;;;4.45;1.58;;;13.40;99.90;;;;;;5113458;27;20024;-74
2021/10/04 04:58:56;;;;;;;4.28;1.42;;;13.40;99.90;;;;;;5116349;27;20028;-75
2021/10/04 05:01:22;;;;;;;2.40;1.00;;;13.40;99.90;;;;;;5114927;27;20110;-74
2021/10/04 05:03:48;;;;;;;3.97;1.30;;;13.40;99.90;;;;;;5115091;27;20035;-74
2021/10/04 05:06:13;;;;;;;4.18;1.42;;;13.50;99.90;;;;;;5114102;27;20506;-74
2021/10/04 05:08:39;;;;;;;4.47;1.45;;;13.50;99.90;;;;;;5095768;28;20395;-74
2021/10/04 05:11:05;;;;;;;2.33;1.25;;;13.50;99.90;;;;;;5111581;28;20518;-75
2021/10/04 05:13:31;;;;;;;10.57;1.55;;;13.50;99.90;;;;;;5111621;28;20027;-75
2021/10/04 05:15:56;;;;;;;4.63;1.02;;;13.50;99.90;;;;;;5113965;27;20039;-74
2021/10/04 05:18:22;;;;;;;5.38;0.93;;;13.50;99.90;;;;;;5107618;27;20027;-74
2021/10/04 05:20:48;;;;;;;3.97;1.05;;;13.50;99.90;;;;;;5112645;28;20034;-74
2021/10/04 05:23:14;;;;;;;4.97;0.98;;;13.50;99.90;;;;;;5114536;27;20072;-74
2021/10/04 05:25:39;;;;;;;4.45;1.02;;;13.40;99.90;;;;;;5115366;27;20059;-74
2021/10/04 05:28:05;;;;;;;3.55;1.10;;;13.40;99.90;;;;;;5113645;28;20244;-75
2021/10/04 05:30:31;;;;;;;3.97;1.40;;;13.50;99.90;;;;;;5090663;28;20443;-75
2021/10/04 05:32:57;;;;;;;3.67;0.85;;;13.50;99.90;;;;;;5114682;28;20031;-75
2021/10/04 05:35:22;;;;;;;3.72;1.40;;;13.40;99.90;;;;;;5115210;27;20103;-74
2021/10/04 05:37:49;;;;;;;3.00;1.25;;;13.50;99.90;;;;;;5114697;28;20053;-74
2021/10/04 05:40:15;;;;;;;5.90;1.30;;;13.40;99.90;;;;;;5113989;28;20027;-74
2021/10/04 05:42:41;;;;;;;5.22;1.10;;;13.40;99.90;;;;;;5114281;28;20028;-74
2021/10/04 05:45:09;;;;;;;1.83;1.20;;;13.40;99.90;;;;;;5097034;28;20049;-74
2021/10/04 05:47:36;;;;;;;7.20;1.00;;;13.40;99.90;;;;;;5114213;28;20077;-74
2021/10/04 05:50:02;;;;;;;4.53;1.27;;;13.40;99.90;;;;;;5110379;28;20062;-75
2021/10/04 05:52:28;;;;;;;2.70;1.02;;;13.50;99.90;;;;;;5110082;28;20440;-74
2021/10/04 05:54:54;;;;;;;4.88;1.95;;;13.30;99.90;;;;;;5090713;28;20115;-74
2021/10/04 05:57:20;;;;;;;4.75;1.90;;;13.40;99.90;;;;;;5110686;28;20111;-74
2021/10/04 05:59:46;;;;;;;2.58;1.15;;;13.40;99.90;;;;;;5112164;28;20039;-75
2021/10/04 06:02:11;;;;;;;4.55;1.70;;;13.40;99.90;;;;;;5110930;28;20028;-74
2021/10/04 06:04:37;;;;;;;2.35;0.93;;;13.40;99.90;;;;;;5093744;28;20020;-74
2021/10/04 06:07:03;;;;;;;1.30;1.02;;;13.30;99.90;;;;;;5111730;28;20024;-75
2021/10/04 06:09:28;;;;;;;4.15;1.13;;;13.20;99.90;;;;;;5110876;28;20032;-75
2021/10/04 06:11:54;;;;;;;4.40;1.20;;;13.20;99.90;;;;;;5109973;28;20024;-74
2021/10/04 06:14:20;;;;;;;2.88;0.90;;;13.30;99.90;;;;;;5111392;28;20016;-74
2021/10/04 06:16:46;;;;;;;6.60;1.67;;;13.20;99.90;;;;;;5110601;28;20027;-74
2021/10/04 06:19:12;;;;;;;5.78;1.52;;;13.20;99.90;;;;;;5109866;28;20026;-75
2021/10/04 06:21:38;;;;;;;3.03;0.70;;;13.30;99.90;;;;;;5111724;28;20023;-74
2021/10/04 06:24:03;;;;;;;7.85;1.15;;;13.30;99.90;;;;;;5108022;28;20023;-75
2021/10/04 06:26:29;;;;;;;3.13;1.10;;;13.30;99.90;;;;;;5111988;28;20059;-75
2021/10/04 06:28:55;;;;;;;3.55;1.40;;;13.30;99.90;;;;;;5108560;28;20036;-74
2021/10/04 06:31:20;;;;;;;4.53;1.50;;;13.30;99.90;;;;;;5112882;28;20415;-74
2021/10/04 06:33:46;;;;;;;5.43;1.02;;;13.30;99.90;;;;;;5114974;28;20479;-75
2021/10/04 06:36:12;;;;;;;6.20;1.42;;;13.30;99.90;;;;;;5115617;28;20030;-74
2021/10/04 06:38:37;;;;;;;1.25;1.02;;;13.30;99.90;;;;;;5115669;28;20024;-75
2021/10/04 06:41:03;;;;;;;4.90;1.70;;;13.20;99.90;;;;;;5115421;28;20020;-74
2021/10/04 06:43:29;;;;;;;2.28;0.98;;;13.20;99.90;;;;;;5115146;28;20034;-74
2021/10/04 06:45:54;;;;;;;2.22;0.80;;;13.20;99.90;;;;;;5098707;28;20024;-74
2021/10/04 06:48:21;;;;;;;2.50;1.00;;;13.30;99.90;;;;;;5114987;28;20038;-74
2021/10/04 06:50:46;;;;;;;8.02;1.38;;;13.30;99.90;;;;;;5111818;28;20098;-74
2021/10/04 06:53:12;;;;;;;3.58;1.10;;;13.30;99.90;;;;;;5114960;28;20103;-74
2021/10/04 06:55:37;;;;;;;7.13;1.52;;;13.30;99.90;;;;;;5096840;28;20467;-74
2021/10/04 06:58:03;;;;;;;3.58;1.30;;;13.30;99.90;;;;;;5115435;28;20407;-74
2021/10/04 07:00:29;;;;;;;2.78;1.00;;;13.30;99.90;;;;;;5113936;28;20066;-74
2021/10/04 07:02:55;;;;;;;5.35;1.15;;;13.30;99.90;;;;;;5114816;28;20054;-74
2021/10/04 07:05:21;;;;;;;5.55;1.33;;;13.30;99.90;;;;;;5110376;28;20027;-74
2021/10/04 07:07:49;;;;;;;2.40;1.08;;;13.30;99.90;;;;;;5114706;28;20028;-74
2021/10/04 07:10:16;;;;;;;5.07;1.63;;;13.30;99.90;;;;;;5114761;28;20027;-74
2021/10/04 07:12:42;;;;;;;5.32;1.15;;;13.30;99.90;;;;;;5111467;28;20020;-74
2021/10/04 07:15:08;;;;;;;5.88;1.88;;;13.20;99.90;;;;;;5114252;28;20475;-74
2021/10/04 07:17:34;;;;;;;5.72;2.38;;;13.30;99.90;;;;;;5114084;28;20466;-74
2021/10/04 07:20:00;;;;;;;5.57;1.98;;;13.20;99.90;;;;;;5114475;28;20030;-74
2021/10/04 07:22:26;;;;;;;4.50;2.13;;;13.30;99.90;;;;;;5110887;28;20103;-74
2021/10/04 07:24:52;;;;;;;5.07;2.80;;;13.30;99.90;;;;;;5114045;28;20020;-74
2021/10/04 07:27:18;;;;;;;6.63;2.40;;;13.30;99.90;;;;;;5096307;28;20385;-74
2021/10/04 07:29:43;;;;;;;6.80;2.83;;;13.30;99.90;;;;;;5110527;27;20047;-74
2021/10/04 07:32:09;;;;;;;6.80;2.85;;;13.40;99.90;;;;;;5113187;28;20027;-74
2021/10/04 07:34:37;;;;;;;8.48;2.38;;;13.30;99.90;;;;;;5106178;28;20096;-74
2021/10/04 07:37:03;;;;;;;4.95;1.83;;;13.40;99.90;;;;;;5110122;28;20028;-80
2021/10/04 07:39:30;;;;;;;11.07;2.17;;;13.30;99.90;;;;;;5113319;28;20090;-74
2021/10/04 07:41:57;;;;;;;4.43;1.90;;;13.40;99.90;;;;;;5112284;28;20031;-74
2021/10/04 07:44:24;;;;;;;5.88;1.80;;;13.50;99.90;;;;;;5109767;28;20094;-74
2021/10/04 07:46:51;;;;;;;5.75;2.60;;;13.50;99.90;;;;;;5112181;28;20114;-75
2021/10/04 07:49:17;;;;;;;4.45;2.00;;;13.40;99.90;;;;;;5113528;28;20031;-74
2021/10/04 07:51:43;;;;;;;4.53;1.60;;;13.40;99.90;;;;;;5112835;28;20044;-75
2021/10/04 07:54:09;;;;;;;6.20;2.53;;;13.40;99.90;;;;;;5105755;28;20031;-74
2021/10/04 07:56:38;;;;;;;9.23;2.10;;;13.40;99.90;;;;;;5108860;28;20026;-73
2021/10/04 07:59:06;;;;;;;4.55;1.58;;;13.50;99.90;;;;;;5112436;28;20535;-73
2021/10/04 08:01:33;;;;;;;4.90;1.73;;;13.50;99.90;;;;;;5111213;28;20490;-73
2021/10/04 08:03:58;;;;;;;5.97;2.20;;;13.50;99.90;;;;;;5093717;28;20024;-73
2021/10/04 08:06:26;;;;;;;4.10;1.95;;;13.50;99.90;;;;;;5109661;27;20026;-73
2021/10/04 08:08:53;;;;;;;5.43;1.90;;;13.50;99.90;;;;;;5112173;28;20032;-73
2021/10/04 08:11:20;;;;;;;4.75;1.60;;;13.50;99.90;;;;;;5112415;28;20032;-73
2021/10/04 08:13:46;;;;;;;5.30;1.88;;;13.60;99.90;;;;;;5112905;28;20028;-74
2021/10/04 08:16:12;;;;;;;3.55;1.63;;;13.50;99.90;;;;;;5110881;28;20478;-73
2021/10/04 08:18:38;;;;;;;5.03;1.70;;;13.60;99.90;;;;;;5093889;28;20531;-73
2021/10/04 08:21:04;;;;;;;5.40;1.80;;;13.60;99.90;;;;;;5110962;28;20032;-73
2021/10/04 08:23:31;;;;;;;5.03;1.50;;;13.60;99.90;;;;;;5108026;28;20015;-73
2021/10/04 08:25:56;;;;;;;7.90;2.15;;;13.80;99.90;;;;;;5109236;28;20094;-73
2021/10/04 08:28:22;;;;;;;6.47;1.55;;;13.90;99.90;;;;;;5108586;28;20035;-74
2021/10/04 08:30:48;;;;;;;3.65;1.30;;;13.90;99.90;;;;;;5108953;28;20028;-73
2021/10/04 08:33:14;;;;;;;5.03;1.50;;;14.10;99.90;;;;;;5111755;28;20058;-73
2021/10/04 08:35:40;;;;;;;7.30;2.17;;;14.10;99.90;;;;;;5103596;27;20452;-74
2021/10/04 08:38:06;;;;;;;5.72;1.70;;;14.20;99.90;;;;;;5091401;28;20039;-75
2021/10/04 08:40:32;;;;;;;3.70;1.17;;;14.20;99.90;;;;;;5105672;28;20032;-74
2021/10/04 08:42:58;;;;;;;9.77;1.55;;;14.20;99.90;;;;;;5111384;28;20028;-75
2021/10/04 08:45:27;;;;;;;3.17;1.15;;;14.20;99.90;;;;;;5111515;28;20021;-74
2021/10/04 08:47:58;;;;;;;3.97;1.20;;;14.30;99.90;;;;;;5111189;28;20076;-75
2021/10/04 08:50:25;;;;;;;4.05;1.10;;;14.30;99.90;;;;;;5111330;28;20040;-74
2021/10/04 08:52:51;;;;;;;5.40;1.25;;;14.40;99.90;;;;;;5108132;28;20027;-75
2021/10/04 08:55:18;;;;;;;7.03;1.45;;;14.50;99.90;;;;;;5107320;28;20004;-74
2021/10/04 08:57:44;;;;;;;3.28;1.15;;;14.60;99.90;;;;;;5107325;28;20034;-74
2021/10/04 09:00:11;;;;;;;4.75;1.52;;;14.70;99.90;;;;;;5109968;28;20024;-74
2021/10/04 09:02:37;;;;;;;8.07;1.55;;;14.70;99.90;;;;;;5107162;28;20102;-73
2021/10/04 09:05:21;;;;;;;5.28;1.33;;;14.80;99.90;;;;;;5110259;28;20032;-73
2021/10/04 09:07:50;;;;;;;7.22;1.35;;;14.80;99.90;;;;;;5107806;28;20038;-73
2021/10/04 09:10:21;;;;;;;7.80;1.88;;;14.90;99.90;;;;;;5110156;28;20042;-73
2021/10/04 09:12:48;;;;;;;4.93;1.35;;;15.00;99.90;;;;;;5090734;28;20080;-73
2021/10/04 09:15:32;;;;;;;7.05;1.42;;;15.00;99.90;;;;;;5110037;28;20027;-73
2021/10/04 09:18:08;;;;;;;6.80;1.48;;;15.20;99.90;;;;;;5109958;28;20023;-72
2021/10/04 09:21:07;;;;;;;4.25;1.23;;;15.40;99.90;;;;;;5106997;28;20027;-72
2021/10/04 09:23:33;;;;;;;4.05;1.10;;;15.50;99.90;;;;;;5108133;28;20152;-73
2021/10/04 09:26:00;;;;;;;5.53;1.23;;;15.50;99.90;;;;;;5109920;28;20012;-73
2021/10/04 09:28:35;;;;;;;5.63;1.25;;;15.60;99.90;;;;;;5088164;28;20030;-73
2021/10/04 09:31:16;;;;;;;7.18;1.20;;;15.80;99.90;;;;;;5086118;28;20118;-74
2021/10/04 09:34:27;;;;;;;5.38;1.45;;;15.80;99.90;;;;;;5108986;28;20413;-73
2021/10/04 09:36:58;;;;;;;5.43;1.33;;;16.00;99.90;;;;;;5108364;28;20047;-73
2021/10/04 09:39:26;;;;;;;9.38;1.55;;;16.20;99.90;;;;;;5089211;28;20028;-73
2021/10/04 09:42:08;;;;;;;4.10;1.05;;;16.40;99.90;;;;;;5109145;28;20051;-73
2021/10/04 09:44:55;;;;;;;5.82;1.27;;;16.40;99.90;;;;;;5110066;28;20026;-73
2021/10/04 09:47:34;;;;;;;5.30;1.33;;;16.50;99.90;;;;;;5105680;28;20032;-73
2021/10/04 09:50:04;;;;;;;6.85;1.63;;;16.50;99.90;;;;;;5110093;28;20066;-73
2021/10/04 09:52:42;;;;;;;3.75;0.85;;;16.80;99.90;;;;;;5091217;28;20034;-73
2021/10/04 09:55:30;;;;;;;8.63;1.55;;;16.80;99.90;;;;;;5109588;28;20019;-73
2021/10/04 09:57:59;;;;;;;9.77;1.85;;;16.70;99.90;;;;;;5108981;28;20028;-72
2021/10/04 10:00:26;;;;;;;4.50;1.30;;;16.80;99.90;;;;;;5109815;28;20038;-73
2021/10/04 10:02:56;;;;;;;4.75;1.08;;;16.90;99.90;;;;;;5108972;28;20522;-73
2021/10/04 10:05:33;;;;;;;9.95;1.40;;;16.90;99.90;;;;;;5111411;28;20028;-73
2021/10/04 10:07:59;;;;;;;8.85;1.30;;;17.10;99.90;;;;;;5113087;28;20402;-73
2021/10/04 10:10:25;;;;;;;5.03;1.30;;;17.30;99.90;;;;;;5114605;28;20090;-73
2021/10/04 10:12:51;;;;;;;5.00;1.00;;;17.50;99.90;;;;;;5111882;28;20115;-73
2021/10/04 10:15:19;;;;;;;9.88;1.05;;;17.60;99.90;;;;;;5113144;28;20028;-73
2021/10/04 10:17:47;;;;;;;4.43;1.30;;;17.80;99.90;;;;;;5111829;27;20023;-73
2021/10/04 10:20:18;;;;;;;4.15;1.35;;;17.60;99.90;;;;;;5112278;28;20386;-72
2021/10/04 10:22:49;;;;;;;7.13;1.33;;;17.60;99.90;;;;;;5113364;28;20084;-73
2021/10/04 10:25:27;;;;;;;6.57;1.27;;;17.70;99.90;;;;;;5114151;28;20027;-73
2021/10/04 10:27:53;;;;;;;8.43;1.60;;;17.80;99.90;;;;;;5114476;28;20102;-73
2021/10/04 10:30:21;;;;;;;8.13;1.70;;;17.90;99.90;;;;;;5113599;28;20046;-72
2021/10/04 10:32:47;;;;;;;8.35;1.98;;;17.90;99.90;;;;;;5113203;28;20055;-74
2021/10/04 10:35:14;;;;;;;6.40;1.60;;;18.00;99.90;;;;;;5110978;27;20062;-73
2021/10/04 10:37:50;;;;;;;10.85;1.48;;;18.10;99.90;;;;;;5097753;28;20020;-73
2021/10/04 10:40:20;;;;;;;8.93;1.33;;;18.10;99.90;;;;;;5109139;28;20067;-73
2021/10/04 10:43:01;;;;;;;5.55;1.10;;;18.30;99.90;;;;;;5108631;27;20019;-73
2021/10/04 10:45:45;;;;;;;4.90;1.20;;;18.40;99.90;;;;;;5112771;28;20049;-73
2021/10/04 10:48:11;;;;;;;8.45;1.20;;;18.40;99.90;;;;;;5112444;28;20027;-73
2021/10/04 10:50:46;;;;;;;3.20;0.95;;;18.30;99.90;;;;;;5109394;28;20059;-73
2021/10/04 10:53:17;;;;;;;9.65;1.00;;;18.30;99.90;;;;;;5113356;28;20550;-73
2021/10/04 10:55:46;;;;;;;4.07;0.98;;;18.30;99.90;;;;;;5112033;28;20030;-72
2021/10/04 10:58:20;;;;;;;3.08;0.93;;;18.00;99.90;;;;;;5113238;28;20024;-74
2021/10/04 11:01:03;;;;;;;8.30;1.25;;;17.80;99.90;;;;;;5107608;28;20063;-73
2021/10/04 11:03:29;;;;;;;6.50;1.55;;;17.60;99.90;;;;;;5089805;28;20486;-73
2021/10/04 11:06:04;;;;;;;4.88;1.05;;;17.70;99.90;;;;;;5090525;28;20028;-74
2021/10/04 11:08:30;;;;;;;6.57;0.70;;;17.90;99.90;;;;;;5111812;28;20540;-74
2021/10/04 11:10:56;;;;;;;4.95;0.80;;;18.00;99.90;;;;;;5107326;28;20027;-74
2021/10/04 11:13:28;;;;;;;3.78;0.90;;;18.30;99.90;;;;;;5111371;28;20084;-74
2021/10/04 11:15:56;;;;;;;3.50;1.23;;;18.50;99.90;;;;;;5112686;28;20087;-74
2021/10/04 11:18:23;;;;;;;4.38;1.10;;;18.50;99.90;;;;;;5112797;28;20081;-74
2021/10/04 11:21:10;;;;;;;7.32;1.15;;;18.40;99.90;;;;;;5110775;28;20023;-75
2021/10/04 11:23:43;;;;;;;10.38;1.00;;;18.20;99.90;;;;;;5109348;27;20031;-74
2021/10/04 11:26:12;;;;;;;5.82;1.02;;;18.20;99.90;;;;;;5113120;28;20050;-74
2021/10/04 11:28:41;;;;;;;7.07;1.42;;;17.90;99.90;;;;;;5111938;28;20028;-74
2021/10/04 11:31:12;;;;;;;5.75;1.08;;;17.90;99.90;;;;;;5107381;28;20404;-75
2021/10/04 11:33:53;;;;;;;5.88;1.05;;;17.80;99.90;;;;;;5112235;28;20519;-73
2021/10/04 11:36:22;;;;;;;5.47;1.00;;;17.90;99.90;;;;;;5108035;27;20125;-74
2021/10/04 11:38:57;;;;;;;4.60;1.08;;;18.00;99.90;;;;;;5111429;28;20557;-74
2021/10/04 11:41:30;;;;;;;5.50;1.17;;;18.20;99.90;;;;;;5112479;28;20510;-73
2021/10/04 11:43:59;;;;;;;7.22;1.00;;;18.30;99.90;;;;;;5107087;27;20019;-74
2021/10/04 11:46:28;;;;;;;5.82;1.10;;;18.50;99.90;;;;;;5111060;28;20032;-74
2021/10/04 11:49:09;;;;;;;5.60;1.38;;;18.60;99.90;;;;;;5109671;28;20050;-73
2021/10/04 11:51:45;;;;;;;5.70;0.85;;;18.60;99.90;;;;;;5111599;28;20020;-74
2021/10/04 11:54:13;;;;;;;4.10;1.60;;;18.60;99.90;;;;;;5108597;27;20379;-74
2021/10/04 11:56:40;;;;;;;7.88;1.10;;;18.50;99.90;;;;;;5110994;28;20479;-74
2021/10/04 11:59:06;;;;;;;4.38;0.95;;;18.60;99.90;;;;;;5109419;28;20027;-73
2021/10/04 12:01:40;;;;;;;5.97;1.30;;;18.60;99.90;;;;;;5111424;28;20019;-73
2021/10/04 12:04:13;;;;;;;6.95;1.17;;;18.70;99.90;;;;;;5110781;28;20120;-74
2021/10/04 12:06:44;;;;;;;6.50;0.70;;;18.80;99.90;;;;;;5112559;28;20019;-74
2021/10/04 12:09:15;;;;;;;6.43;1.27;;;18.80;99.90;;;;;;5108639;28;20100;-74
2021/10/04 12:12:07;;;;;;;5.27;1.00;;;19.00;99.90;;;;;;5110667;28;20022;-74
2021/10/04 12:14:35;;;;;;;4.88;1.05;;;19.00;99.90;;;;;;5106635;28;20039;-74
2021/10/04 12:17:03;;;;;;;5.90;1.27;;;19.20;99.90;;;;;;5108926;28;21181;-74
2021/10/04 12:19:29;;;;;;;6.93;1.67;;;18.80;99.90;;;;;;5110799;28;20020;-74
2021/10/04 12:21:55;;;;;;;5.25;0.90;;;19.00;99.90;;;;;;5109864;28;20023;-74
2021/10/04 12:24:30;;;;;;;4.25;1.10;;;19.00;99.90;;;;;;5109731;28;20015;-73
2021/10/04 12:27:12;;;;;;;6.70;1.13;;;18.90;99.90;;;;;;5110208;28;20027;-74
2021/10/04 12:29:39;;;;;;;3.90;0.80;;;18.80;99.90;;;;;;5109931;28;20043;-74
2021/10/04 12:32:42;;;;;;;4.20;0.95;;;18.80;99.90;;;;;;5108276;28;20023;-74
2021/10/04 12:35:22;;;;;;;9.07;0.73;;;18.80;99.90;;;;;;5087315;28;20031;-74
2021/10/04 12:37:55;;;;;;;4.80;1.00;;;18.80;99.90;;;;;;5105321;28;20035;-74
2021/10/04 12:40:30;;;;;;;;;;;18.70;99.90;;;;;;5110639;28;20028;-74
2021/10/04 12:43:08;;;;;;;5.88;1.00;;;18.60;99.90;;;;;;5112213;28;19904;-74
2021/10/04 12:45:35;;;;;;;3.22;0.90;;;18.80;99.90;;;;;;5111494;28;20470;-74
2021/10/04 12:48:14;;;;;;;4.88;0.82;;;19.00;99.90;;;;;;5111527;28;20068;-74
2021/10/04 12:50:41;;;;;;;2.83;0.98;;;19.00;99.90;;;;;;5111707;28;20031;-74
2021/10/04 12:53:19;;;;;;;7.25;1.52;;;18.70;99.90;;;;;;5111328;28;20363;-74